sensor_id;sensor_type;location;lat;lon;timestamp;P1;durP1;ratioP1;P2;durP2;ratioP2
29954;SDS011;16812;51.168;6.840;2022-10-16T00:02:07;3.10;;;2.00;;
29954;SDS011;16812;51.168;6.840;2022-10-16T00:04:34;3.33;;;1.70;;
29954;SDS011;16812;51.168;6.840;2022-10-16T00:07:01;2.00;;;1.60;;
29954;SDS011;16812;51.168;6.840;2022-10-16T00:09:28;3.53;;;1.47;;
29954;SDS011;16812;51.168;6.840;2022-10-16T00:11:55;14.73;;;2.50;;
29954;SDS011;16812;51.168;6.840;2022-10-16T00:14:22;2.03;;;1.83;;
29954;SDS011;16812;51.168;6.840;2022-10-16T00:16:51;2.33;;;1.90;;
29954;SDS011;16812;51.168;6.840;2022-10-16T00:19:18;1.70;;;1.60;;
29954;SDS011;16812;51.168;6.840;2022-10-16T00:21:45;1.77;;;1.67;;
29954;SDS011;16812;51.168;6.840;2022-10-16T00:24:12;2.20;;;1.90;;
29954;SDS011;16812;51.168;6.840;2022-10-16T00:26:39;3.60;;;2.00;;
29954;SDS011;16812;51.168;6.840;2022-10-16T00:29:07;4.03;;;1.73;;
29954;SDS011;16812;51.168;6.840;2022-10-16T00:31:35;1.50;;;1.40;;
29954;SDS011;16812;51.168;6.840;2022-10-16T00:34:03;2.90;;;1.77;;
29954;SDS011;16812;51.168;6.840;2022-10-16T00:36:31;3.23;;;1.80;;
29954;SDS011;16812;51.168;6.840;2022-10-16T00:38:58;1.87;;;1.73;;
29954;SDS011;16812;51.168;6.840;2022-10-16T00:41:26;1.90;;;1.60;;
29954;SDS011;16812;51.168;6.840;2022-10-16T00:43:54;1.97;;;1.83;;
29954;SDS011;16812;51.168;6.840;2022-10-16T00:46:22;4.90;;;2.33;;
29954;SDS011;16812;51.168;6.840;2022-10-16T00:48:50;3.30;;;2.40;;
29954;SDS011;16812;51.168;6.840;2022-10-16T00:51:21;3.00;;;2.10;;
29954;SDS011;16812;51.168;6.840;2022-10-16T00:53:49;2.70;;;2.27;;
29954;SDS011;16812;51.168;6.840;2022-10-16T00:56:17;3.43;;;2.17;;
29954;SDS011;16812;51.168;6.840;2022-10-16T00:58:44;5.53;;;2.40;;
29954;SDS011;16812;51.168;6.840;2022-10-16T01:01:11;2.70;;;1.93;;
29954;SDS011;16812;51.168;6.840;2022-10-16T01:03:39;3.00;;;2.30;;
29954;SDS011;16812;51.168;6.840;2022-10-16T01:06:18;5.20;;;2.50;;
29954;SDS011;16812;51.168;6.840;2022-10-16T01:08:51;4.30;;;2.80;;
29954;SDS011;16812;51.168;6.840;2022-10-16T01:11:21;4.20;;;2.50;;
29954;SDS011;16812;51.168;6.840;2022-10-16T01:13:50;5.33;;;2.07;;
29954;SDS011;16812;51.168;6.840;2022-10-16T01:16:21;2.47;;;2.10;;
29954;SDS011;16812;51.168;6.840;2022-10-16T01:18:51;2.63;;;2.10;;
29954;SDS011;16812;51.168;6.840;2022-10-16T01:21:20;4.50;;;2.00;;
29954;SDS011;16812;51.168;6.840;2022-10-16T01:23:51;2.80;;;2.10;;
29954;SDS011;16812;51.168;6.840;2022-10-16T01:26:28;2.00;;;1.70;;
29954;SDS011;16812;51.168;6.840;2022-10-16T01:29:01;2.53;;;2.17;;
29954;SDS011;16812;51.168;6.840;2022-10-16T01:31:31;2.43;;;2.03;;
29954;SDS011;16812;51.168;6.840;2022-10-16T01:34:00;3.07;;;2.33;;
29954;SDS011;16812;51.168;6.840;2022-10-16T01:36:31;2.10;;;1.80;;
29954;SDS011;16812;51.168;6.840;2022-10-16T01:39:01;3.70;;;2.40;;
29954;SDS011;16812;51.168;6.840;2022-10-16T01:41:30;2.10;;;1.87;;
29954;SDS011;16812;51.168;6.840;2022-10-16T01:44:01;3.97;;;2.40;;
29954;SDS011;16812;51.168;6.840;2022-10-16T01:46:29;2.40;;;2.20;;
29954;SDS011;16812;51.168;6.840;2022-10-16T01:48:57;2.30;;;1.93;;
29954;SDS011;16812;51.168;6.840;2022-10-16T01:51:25;2.20;;;2.00;;
29954;SDS011;16812;51.168;6.840;2022-10-16T01:53:53;2.50;;;2.30;;
29954;SDS011;16812;51.168;6.840;2022-10-16T01:56:21;2.53;;;2.33;;
29954;SDS011;16812;51.168;6.840;2022-10-16T01:58:49;3.30;;;2.20;;
29954;SDS011;16812;51.168;6.840;2022-10-16T02:01:20;2.73;;;2.53;;
29954;SDS011;16812;51.168;6.840;2022-10-16T02:03:49;10.00;;;2.57;;
29954;SDS011;16812;51.168;6.840;2022-10-16T02:06:16;3.00;;;2.50;;
29954;SDS011;16812;51.168;6.840;2022-10-16T02:08:43;2.70;;;2.10;;
29954;SDS011;16812;51.168;6.840;2022-10-16T02:11:10;2.73;;;2.30;;
29954;SDS011;16812;51.168;6.840;2022-10-16T02:13:39;2.70;;;2.13;;
29954;SDS011;16812;51.168;6.840;2022-10-16T02:16:06;2.63;;;2.40;;
29954;SDS011;16812;51.168;6.840;2022-10-16T02:18:35;2.60;;;2.40;;
29954;SDS011;16812;51.168;6.840;2022-10-16T02:21:03;5.43;;;2.23;;
29954;SDS011;16812;51.168;6.840;2022-10-16T02:23:34;4.43;;;2.47;;
29954;SDS011;16812;51.168;6.840;2022-10-16T02:26:03;2.80;;;2.47;;
29954;SDS011;16812;51.168;6.840;2022-10-16T02:28:32;2.50;;;2.30;;
29954;SDS011;16812;51.168;6.840;2022-10-16T02:31:02;2.80;;;2.40;;
29954;SDS011;16812;51.168;6.840;2022-10-16T02:33:30;3.80;;;2.57;;
29954;SDS011;16812;51.168;6.840;2022-10-16T02:35:59;2.90;;;2.60;;
29954;SDS011;16812;51.168;6.840;2022-10-16T02:38:26;5.70;;;2.80;;
29954;SDS011;16812;51.168;6.840;2022-10-16T02:40:54;6.10;;;3.00;;
29954;SDS011;16812;51.168;6.840;2022-10-16T02:43:21;2.43;;;2.23;;
29954;SDS011;16812;51.168;6.840;2022-10-16T02:45:48;2.83;;;2.50;;
29954;SDS011;16812;51.168;6.840;2022-10-16T02:48:15;3.90;;;2.57;;
29954;SDS011;16812;51.168;6.840;2022-10-16T02:50:42;2.90;;;2.23;;
29954;SDS011;16812;51.168;6.840;2022-10-16T02:53:11;2.23;;;1.90;;
29954;SDS011;16812;51.168;6.840;2022-10-16T02:55:38;1.80;;;1.70;;
29954;SDS011;16812;51.168;6.840;2022-10-16T02:58:05;2.47;;;2.27;;
29954;SDS011;16812;51.168;6.840;2022-10-16T03:00:33;2.53;;;2.43;;
29954;SDS011;16812;51.168;6.840;2022-10-16T03:03:00;2.37;;;2.00;;
29954;SDS011;16812;51.168;6.840;2022-10-16T03:05:27;3.40;;;1.70;;
29954;SDS011;16812;51.168;6.840;2022-10-16T03:07:54;9.93;;;1.90;;
29954;SDS011;16812;51.168;6.840;2022-10-16T03:10:23;3.13;;;2.03;;
29954;SDS011;16812;51.168;6.840;2022-10-16T03:12:50;1.80;;;1.70;;
29954;SDS011;16812;51.168;6.840;2022-10-16T03:15:17;4.20;;;1.80;;
29954;SDS011;16812;51.168;6.840;2022-10-16T03:17:44;4.60;;;1.67;;
29954;SDS011;16812;51.168;6.840;2022-10-16T03:20:11;1.90;;;1.60;;
29954;SDS011;16812;51.168;6.840;2022-10-16T03:22:38;3.10;;;2.00;;
29954;SDS011;16812;51.168;6.840;2022-10-16T03:25:05;1.83;;;1.73;;
29954;SDS011;16812;51.168;6.840;2022-10-16T03:27:34;3.87;;;1.97;;
29954;SDS011;16812;51.168;6.840;2022-10-16T03:30:01;1.80;;;1.70;;
29954;SDS011;16812;51.168;6.840;2022-10-16T03:32:28;1.93;;;1.40;;
29954;SDS011;16812;51.168;6.840;2022-10-16T03:34:55;2.30;;;1.53;;
29954;SDS011;16812;51.168;6.840;2022-10-16T03:37:23;1.70;;;1.60;;
29954;SDS011;16812;51.168;6.840;2022-10-16T03:39:50;2.00;;;1.63;;
29954;SDS011;16812;51.168;6.840;2022-10-16T03:42:18;1.60;;;1.50;;
29954;SDS011;16812;51.168;6.840;2022-10-16T03:44:46;5.47;;;1.90;;
29954;SDS011;16812;51.168;6.840;2022-10-16T03:47:13;2.23;;;1.60;;
29954;SDS011;16812;51.168;6.840;2022-10-16T03:49:40;1.50;;;1.40;;
29954;SDS011;16812;51.168;6.840;2022-10-16T03:52:07;1.77;;;1.60;;
29954;SDS011;16812;51.168;6.840;2022-10-16T03:54:35;3.87;;;1.60;;
29954;SDS011;16812;51.168;6.840;2022-10-16T03:57:02;1.50;;;1.30;;
29954;SDS011;16812;51.168;6.840;2022-10-16T03:59:29;1.83;;;1.60;;
29954;SDS011;16812;51.168;6.840;2022-10-16T04:01:57;2.90;;;1.63;;
29954;SDS011;16812;51.168;6.840;2022-10-16T04:04:24;1.60;;;1.43;;
29954;SDS011;16812;51.168;6.840;2022-10-16T04:06:52;2.80;;;1.87;;
29954;SDS011;16812;51.168;6.840;2022-10-16T04:09:19;2.70;;;1.50;;
29954;SDS011;16812;51.168;6.840;2022-10-16T04:11:46;1.50;;;1.40;;
29954;SDS011;16812;51.168;6.840;2022-10-16T04:14:13;1.40;;;1.30;;
29954;SDS011;16812;51.168;6.840;2022-10-16T04:16:40;2.03;;;1.43;;
29954;SDS011;16812;51.168;6.840;2022-10-16T04:19:09;2.37;;;1.60;;
29954;SDS011;16812;51.168;6.840;2022-10-16T04:21:36;2.70;;;1.70;;
29954;SDS011;16812;51.168;6.840;2022-10-16T04:24:03;2.03;;;1.80;;
29954;SDS011;16812;51.168;6.840;2022-10-16T04:26:30;1.90;;;1.77;;
29954;SDS011;16812;51.168;6.840;2022-10-16T04:28:58;2.47;;;1.60;;
29954;SDS011;16812;51.168;6.840;2022-10-16T04:31:25;5.33;;;1.50;;
29954;SDS011;16812;51.168;6.840;2022-10-16T04:33:52;2.27;;;1.43;;
29954;SDS011;16812;51.168;6.840;2022-10-16T04:36:20;1.70;;;1.60;;
29954;SDS011;16812;51.168;6.840;2022-10-16T04:38:52;1.60;;;1.50;;
29954;SDS011;16812;51.168;6.840;2022-10-16T04:41:19;1.83;;;1.50;;
29954;SDS011;16812;51.168;6.840;2022-10-16T04:43:46;2.40;;;1.57;;
29954;SDS011;16812;51.168;6.840;2022-10-16T04:46:13;3.07;;;1.40;;
29954;SDS011;16812;51.168;6.840;2022-10-16T04:48:40;1.37;;;1.27;;
29954;SDS011;16812;51.168;6.840;2022-10-16T04:51:07;1.40;;;1.30;;
29954;SDS011;16812;51.168;6.840;2022-10-16T04:53:35;1.63;;;1.53;;
29954;SDS011;16812;51.168;6.840;2022-10-16T04:56:03;1.33;;;1.10;;
29954;SDS011;16812;51.168;6.840;2022-10-16T04:58:30;2.40;;;1.60;;
29954;SDS011;16812;51.168;6.840;2022-10-16T05:00:57;1.40;;;1.30;;
29954;SDS011;16812;51.168;6.840;2022-10-16T05:03:24;1.80;;;1.47;;
29954;SDS011;16812;51.168;6.840;2022-10-16T05:05:51;2.00;;;1.50;;
29954;SDS011;16812;51.168;6.840;2022-10-16T05:08:18;1.50;;;1.40;;
29954;SDS011;16812;51.168;6.840;2022-10-16T05:10:47;3.50;;;1.90;;
29954;SDS011;16812;51.168;6.840;2022-10-16T05:13:14;1.77;;;1.50;;
29954;SDS011;16812;51.168;6.840;2022-10-16T05:15:41;3.13;;;1.40;;
29954;SDS011;16812;51.168;6.840;2022-10-16T05:18:08;2.43;;;1.50;;
29954;SDS011;16812;51.168;6.840;2022-10-16T05:20:35;3.00;;;1.60;;
29954;SDS011;16812;51.168;6.840;2022-10-16T05:23:02;13.83;;;3.20;;
29954;SDS011;16812;51.168;6.840;2022-10-16T05:25:29;1.70;;;1.57;;
29954;SDS011;16812;51.168;6.840;2022-10-16T05:27:58;2.27;;;1.50;;
29954;SDS011;16812;51.168;6.840;2022-10-16T05:30:25;4.70;;;2.00;;
29954;SDS011;16812;51.168;6.840;2022-10-16T05:32:52;2.30;;;1.57;;
29954;SDS011;16812;51.168;6.840;2022-10-16T05:35:20;1.80;;;1.57;;
29954;SDS011;16812;51.168;6.840;2022-10-16T05:37:47;2.60;;;1.50;;
29954;SDS011;16812;51.168;6.840;2022-10-16T05:40:16;2.07;;;1.70;;
29954;SDS011;16812;51.168;6.840;2022-10-16T05:42:43;1.83;;;1.47;;
29954;SDS011;16812;51.168;6.840;2022-10-16T05:45:11;3.73;;;1.50;;
29954;SDS011;16812;51.168;6.840;2022-10-16T05:47:39;2.50;;;1.70;;
29954;SDS011;16812;51.168;6.840;2022-10-16T05:50:06;1.93;;;1.73;;
29954;SDS011;16812;51.168;6.840;2022-10-16T05:52:34;1.60;;;1.50;;
29954;SDS011;16812;51.168;6.840;2022-10-16T05:55:01;2.53;;;1.50;;
29954;SDS011;16812;51.168;6.840;2022-10-16T05:57:28;5.00;;;2.03;;
29954;SDS011;16812;51.168;6.840;2022-10-16T05:59:55;2.03;;;1.83;;
29954;SDS011;16812;51.168;6.840;2022-10-16T06:02:24;2.00;;;1.90;;
29954;SDS011;16812;51.168;6.840;2022-10-16T06:04:51;2.23;;;1.77;;
29954;SDS011;16812;51.168;6.840;2022-10-16T06:07:18;2.20;;;1.80;;
29954;SDS011;16812;51.168;6.840;2022-10-16T06:09:47;3.20;;;1.60;;
29954;SDS011;16812;51.168;6.840;2022-10-16T06:12:14;2.10;;;1.80;;
29954;SDS011;16812;51.168;6.840;2022-10-16T06:14:41;3.10;;;2.07;;
29954;SDS011;16812;51.168;6.840;2022-10-16T06:17:13;2.63;;;2.03;;
29954;SDS011;16812;51.168;6.840;2022-10-16T06:19:42;1.70;;;1.60;;
29954;SDS011;16812;51.168;6.840;2022-10-16T06:22:09;2.00;;;1.80;;
29954;SDS011;16812;51.168;6.840;2022-10-16T06:24:36;2.20;;;1.80;;
29954;SDS011;16812;51.168;6.840;2022-10-16T06:27:03;2.27;;;1.80;;
29954;SDS011;16812;51.168;6.840;2022-10-16T06:29:31;3.37;;;1.93;;
29954;SDS011;16812;51.168;6.840;2022-10-16T06:31:58;2.37;;;1.70;;
29954;SDS011;16812;51.168;6.840;2022-10-16T06:34:25;4.07;;;1.80;;
29954;SDS011;16812;51.168;6.840;2022-10-16T06:36:53;2.17;;;2.00;;
29954;SDS011;16812;51.168;6.840;2022-10-16T06:39:20;2.27;;;2.07;;
29954;SDS011;16812;51.168;6.840;2022-10-16T06:41:47;3.83;;;2.43;;
29954;SDS011;16812;51.168;6.840;2022-10-16T06:44:15;4.53;;;2.20;;
29954;SDS011;16812;51.168;6.840;2022-10-16T06:46:42;2.50;;;2.23;;
29954;SDS011;16812;51.168;6.840;2022-10-16T06:49:09;4.40;;;2.80;;
29954;SDS011;16812;51.168;6.840;2022-10-16T06:51:36;2.50;;;1.83;;
29954;SDS011;16812;51.168;6.840;2022-10-16T06:54:09;2.50;;;1.90;;
29954;SDS011;16812;51.168;6.840;2022-10-16T06:56:37;2.60;;;1.93;;
29954;SDS011;16812;51.168;6.840;2022-10-16T06:59:04;2.77;;;2.10;;
29954;SDS011;16812;51.168;6.840;2022-10-16T07:01:31;1.77;;;1.50;;
29954;SDS011;16812;51.168;6.840;2022-10-16T07:03:59;5.00;;;2.27;;
29954;SDS011;16812;51.168;6.840;2022-10-16T07:06:26;1.87;;;1.60;;
29954;SDS011;16812;51.168;6.840;2022-10-16T07:08:54;1.77;;;1.63;;
29954;SDS011;16812;51.168;6.840;2022-10-16T07:11:23;2.90;;;1.60;;
29954;SDS011;16812;51.168;6.840;2022-10-16T07:13:50;3.43;;;1.57;;
29954;SDS011;16812;51.168;6.840;2022-10-16T07:16:22;2.77;;;1.60;;
29954;SDS011;16812;51.168;6.840;2022-10-16T07:18:49;1.87;;;1.73;;
29954;SDS011;16812;51.168;6.840;2022-10-16T07:21:17;2.87;;;1.93;;
29954;SDS011;16812;51.168;6.840;2022-10-16T07:23:45;2.37;;;1.70;;
29954;SDS011;16812;51.168;6.840;2022-10-16T07:26:12;2.10;;;1.50;;
29954;SDS011;16812;51.168;6.840;2022-10-16T07:28:40;2.50;;;1.70;;
29954;SDS011;16812;51.168;6.840;2022-10-16T07:31:10;4.00;;;1.90;;
29954;SDS011;16812;51.168;6.840;2022-10-16T07:33:38;2.67;;;1.63;;
29954;SDS011;16812;51.168;6.840;2022-10-16T07:36:06;1.47;;;1.30;;
29954;SDS011;16812;51.168;6.840;2022-10-16T07:38:37;2.93;;;1.50;;
29954;SDS011;16812;51.168;6.840;2022-10-16T07:41:05;4.10;;;1.67;;
29954;SDS011;16812;51.168;6.840;2022-10-16T07:43:33;1.53;;;1.43;;
29954;SDS011;16812;51.168;6.840;2022-10-16T07:46:01;1.83;;;1.70;;
29954;SDS011;16812;51.168;6.840;2022-10-16T07:48:33;2.93;;;1.60;;
29954;SDS011;16812;51.168;6.840;2022-10-16T07:51:00;2.10;;;1.73;;
29954;SDS011;16812;51.168;6.840;2022-10-16T07:53:28;2.10;;;1.80;;
29954;SDS011;16812;51.168;6.840;2022-10-16T07:55:56;7.13;;;1.87;;
29954;SDS011;16812;51.168;6.840;2022-10-16T07:58:24;2.90;;;1.63;;
29954;SDS011;16812;51.168;6.840;2022-10-16T08:00:51;2.20;;;1.40;;
29954;SDS011;16812;51.168;6.840;2022-10-16T08:03:19;1.70;;;1.60;;
29954;SDS011;16812;51.168;6.840;2022-10-16T08:05:46;5.53;;;1.70;;
29954;SDS011;16812;51.168;6.840;2022-10-16T08:08:14;2.30;;;1.90;;
29954;SDS011;16812;51.168;6.840;2022-10-16T08:10:41;1.40;;;1.30;;
29954;SDS011;16812;51.168;6.840;2022-10-16T08:13:09;2.07;;;1.40;;
29954;SDS011;16812;51.168;6.840;2022-10-16T08:15:36;3.67;;;1.90;;
29954;SDS011;16812;51.168;6.840;2022-10-16T08:18:04;1.80;;;1.40;;
29954;SDS011;16812;51.168;6.840;2022-10-16T08:20:33;4.30;;;1.40;;
29954;SDS011;16812;51.168;6.840;2022-10-16T08:23:00;2.10;;;1.50;;
29954;SDS011;16812;51.168;6.840;2022-10-16T08:25:27;1.77;;;1.67;;
29954;SDS011;16812;51.168;6.840;2022-10-16T08:27:55;2.20;;;1.20;;
29954;SDS011;16812;51.168;6.840;2022-10-16T08:30:23;4.43;;;1.43;;
29954;SDS011;16812;51.168;6.840;2022-10-16T08:32:50;7.90;;;1.47;;
29954;SDS011;16812;51.168;6.840;2022-10-16T08:35:18;3.57;;;1.83;;
29954;SDS011;16812;51.168;6.840;2022-10-16T08:37:46;2.20;;;1.50;;
29954;SDS011;16812;51.168;6.840;2022-10-16T08:40:16;2.60;;;1.40;;
29954;SDS011;16812;51.168;6.840;2022-10-16T08:42:47;5.30;;;1.67;;
29954;SDS011;16812;51.168;6.840;2022-10-16T08:45:26;1.87;;;1.67;;
29954;SDS011;16812;51.168;6.840;2022-10-16T08:48:00;3.23;;;1.30;;
29954;SDS011;16812;51.168;6.840;2022-10-16T08:50:32;2.60;;;1.30;;
29954;SDS011;16812;51.168;6.840;2022-10-16T08:53:01;1.80;;;1.20;;
29954;SDS011;16812;51.168;6.840;2022-10-16T08:55:31;2.73;;;1.50;;
29954;SDS011;16812;51.168;6.840;2022-10-16T08:58:00;2.93;;;1.23;;
29954;SDS011;16812;51.168;6.840;2022-10-16T09:00:27;3.30;;;1.30;;
29954;SDS011;16812;51.168;6.840;2022-10-16T09:02:58;4.53;;;1.60;;
29954;SDS011;16812;51.168;6.840;2022-10-16T09:05:40;1.37;;;1.27;;
29954;SDS011;16812;51.168;6.840;2022-10-16T09:08:14;3.83;;;1.47;;
29954;SDS011;16812;51.168;6.840;2022-10-16T09:10:46;2.07;;;1.20;;
29954;SDS011;16812;51.168;6.840;2022-10-16T09:13:18;1.43;;;1.23;;
29954;SDS011;16812;51.168;6.840;2022-10-16T09:15:48;1.23;;;1.13;;
29954;SDS011;16812;51.168;6.840;2022-10-16T09:18:19;2.10;;;1.40;;
29954;SDS011;16812;51.168;6.840;2022-10-16T09:20:57;1.30;;;1.20;;
29954;SDS011;16812;51.168;6.840;2022-10-16T09:23:28;2.50;;;1.40;;
29954;SDS011;16812;51.168;6.840;2022-10-16T09:25:55;1.53;;;1.10;;
29954;SDS011;16812;51.168;6.840;2022-10-16T09:28:23;1.63;;;1.13;;
29954;SDS011;16812;51.168;6.840;2022-10-16T09:30:50;3.73;;;1.47;;
29954;SDS011;16812;51.168;6.840;2022-10-16T09:33:18;1.10;;;1.00;;
29954;SDS011;16812;51.168;6.840;2022-10-16T09:35:46;2.50;;;1.43;;
29954;SDS011;16812;51.168;6.840;2022-10-16T09:38:21;2.83;;;1.30;;
29954;SDS011;16812;51.168;6.840;2022-10-16T09:40:50;2.13;;;1.30;;
29954;SDS011;16812;51.168;6.840;2022-10-16T09:43:28;1.70;;;1.60;;
29954;SDS011;16812;51.168;6.840;2022-10-16T09:45:58;2.10;;;1.00;;
29954;SDS011;16812;51.168;6.840;2022-10-16T09:48:27;2.67;;;1.37;;
29954;SDS011;16812;51.168;6.840;2022-10-16T09:50:55;1.55;;;1.02;;
29954;SDS011;16812;51.168;6.840;2022-10-16T09:53:22;2.10;;;1.00;;
29954;SDS011;16812;51.168;6.840;2022-10-16T09:55:51;1.50;;;0.98;;
29954;SDS011;16812;51.168;6.840;2022-10-16T09:58:20;1.23;;;1.13;;
29954;SDS011;16812;51.168;6.840;2022-10-16T10:00:48;1.53;;;1.07;;
29954;SDS011;16812;51.168;6.840;2022-10-16T10:03:32;2.90;;;1.40;;
29954;SDS011;16812;51.168;6.840;2022-10-16T10:06:06;0.97;;;0.90;;
29954;SDS011;16812;51.168;6.840;2022-10-16T10:08:33;3.90;;;1.57;;
29954;SDS011;16812;51.168;6.840;2022-10-16T10:11:02;2.03;;;1.10;;
29954;SDS011;16812;51.168;6.840;2022-10-16T10:13:29;2.87;;;1.50;;
29954;SDS011;16812;51.168;6.840;2022-10-16T10:15:56;2.17;;;1.10;;
29954;SDS011;16812;51.168;6.840;2022-10-16T10:18:23;3.63;;;1.50;;
29954;SDS011;16812;51.168;6.840;2022-10-16T10:20:57;2.20;;;0.80;;
29954;SDS011;16812;51.168;6.840;2022-10-16T10:23:24;2.00;;;1.03;;
29954;SDS011;16812;51.168;6.840;2022-10-16T10:25:52;3.80;;;1.13;;
29954;SDS011;16812;51.168;6.840;2022-10-16T10:28:24;2.57;;;1.27;;
29954;SDS011;16812;51.168;6.840;2022-10-16T10:30:59;2.73;;;1.30;;
29954;SDS011;16812;51.168;6.840;2022-10-16T10:33:29;2.13;;;1.30;;
29954;SDS011;16812;51.168;6.840;2022-10-16T10:36:01;3.47;;;1.50;;
29954;SDS011;16812;51.168;6.840;2022-10-16T10:38:35;3.30;;;1.27;;
29954;SDS011;16812;51.168;6.840;2022-10-16T10:41:15;3.60;;;1.10;;
29954;SDS011;16812;51.168;6.840;2022-10-16T10:43:50;3.53;;;1.37;;
29954;SDS011;16812;51.168;6.840;2022-10-16T10:46:23;5.33;;;1.47;;
29954;SDS011;16812;51.168;6.840;2022-10-16T10:49:00;4.00;;;1.37;;
29954;SDS011;16812;51.168;6.840;2022-10-16T10:51:30;1.50;;;1.00;;
29954;SDS011;16812;51.168;6.840;2022-10-16T10:54:02;1.77;;;0.97;;
29954;SDS011;16812;51.168;6.840;2022-10-16T10:56:39;1.93;;;1.00;;
29954;SDS011;16812;51.168;6.840;2022-10-16T10:59:17;6.33;;;1.13;;
29954;SDS011;16812;51.168;6.840;2022-10-16T11:01:50;2.23;;;1.03;;
29954;SDS011;16812;51.168;6.840;2022-10-16T11:04:29;1.90;;;1.00;;
29954;SDS011;16812;51.168;6.840;2022-10-16T11:06:59;2.10;;;1.43;;
29954;SDS011;16812;51.168;6.840;2022-10-16T11:09:27;2.70;;;1.13;;
29954;SDS011;16812;51.168;6.840;2022-10-16T11:11:56;1.53;;;1.43;;
29954;SDS011;16812;51.168;6.840;2022-10-16T11:14:28;5.93;;;1.30;;
29954;SDS011;16812;51.168;6.840;2022-10-16T11:16:56;1.53;;;1.00;;
29954;SDS011;16812;51.168;6.840;2022-10-16T11:19:28;3.60;;;0.93;;
29954;SDS011;16812;51.168;6.840;2022-10-16T11:22:00;1.20;;;1.10;;
29954;SDS011;16812;51.168;6.840;2022-10-16T11:24:30;2.60;;;1.00;;
29954;SDS011;16812;51.168;6.840;2022-10-16T11:27:03;1.77;;;0.90;;
29954;SDS011;16812;51.168;6.840;2022-10-16T11:29:43;2.23;;;0.90;;
29954;SDS011;16812;51.168;6.840;2022-10-16T11:32:14;3.63;;;1.10;;
29954;SDS011;16812;51.168;6.840;2022-10-16T11:34:44;2.60;;;1.23;;
29954;SDS011;16812;51.168;6.840;2022-10-16T11:37:16;4.90;;;1.10;;
29954;SDS011;16812;51.168;6.840;2022-10-16T11:39:44;3.23;;;1.07;;
29954;SDS011;16812;51.168;6.840;2022-10-16T11:42:11;2.83;;;1.20;;
29954;SDS011;16812;51.168;6.840;2022-10-16T11:44:48;2.03;;;1.30;;
29954;SDS011;16812;51.168;6.840;2022-10-16T11:47:23;1.47;;;1.30;;
29954;SDS011;16812;51.168;6.840;2022-10-16T11:50:13;2.60;;;1.10;;
29954;SDS011;16812;51.168;6.840;2022-10-16T11:52:48;2.03;;;1.23;;
29954;SDS011;16812;51.168;6.840;2022-10-16T11:55:20;1.77;;;1.07;;
29954;SDS011;16812;51.168;6.840;2022-10-16T11:57:48;2.23;;;1.10;;
29954;SDS011;16812;51.168;6.840;2022-10-16T12:00:20;3.10;;;1.53;;
29954;SDS011;16812;51.168;6.840;2022-10-16T12:02:50;8.43;;;1.00;;
29954;SDS011;16812;51.168;6.840;2022-10-16T12:05:22;8.37;;;1.90;;
29954;SDS011;16812;51.168;6.840;2022-10-16T12:07:53;3.40;;;1.20;;
29954;SDS011;16812;51.168;6.840;2022-10-16T12:10:24;2.13;;;1.23;;
29954;SDS011;16812;51.168;6.840;2022-10-16T12:12:53;1.60;;;1.20;;
29954;SDS011;16812;51.168;6.840;2022-10-16T12:15:23;1.07;;;0.97;;
29954;SDS011;16812;51.168;6.840;2022-10-16T12:18:20;1.57;;;1.10;;
29954;SDS011;16812;51.168;6.840;2022-10-16T12:20:53;2.53;;;1.17;;
29954;SDS011;16812;51.168;6.840;2022-10-16T12:23:21;2.20;;;1.20;;
29954;SDS011;16812;51.168;6.840;2022-10-16T12:25:53;1.63;;;1.00;;
29954;SDS011;16812;51.168;6.840;2022-10-16T12:28:21;1.93;;;1.03;;
29954;SDS011;16812;51.168;6.840;2022-10-16T12:30:53;1.10;;;1.00;;
29954;SDS011;16812;51.168;6.840;2022-10-16T12:33:21;2.50;;;1.20;;
29954;SDS011;16812;51.168;6.840;2022-10-16T12:35:49;3.70;;;1.33;;
29954;SDS011;16812;51.168;6.840;2022-10-16T12:38:17;1.57;;;1.07;;
29954;SDS011;16812;51.168;6.840;2022-10-16T12:40:45;1.37;;;0.90;;
29954;SDS011;16812;51.168;6.840;2022-10-16T12:43:24;3.87;;;0.97;;
29954;SDS011;16812;51.168;6.840;2022-10-16T12:46:00;1.20;;;0.90;;
29954;SDS011;16812;51.168;6.840;2022-10-16T12:48:27;5.70;;;1.37;;
29954;SDS011;16812;51.168;6.840;2022-10-16T12:51:21;7.90;;;1.37;;
29954;SDS011;16812;51.168;6.840;2022-10-16T12:53:57;2.50;;;1.20;;
29954;SDS011;16812;51.168;6.840;2022-10-16T12:56:26;3.00;;;1.00;;
29954;SDS011;16812;51.168;6.840;2022-10-16T12:59:01;4.97;;;1.43;;
29954;SDS011;16812;51.168;6.840;2022-10-16T13:01:41;2.80;;;1.30;;
29954;SDS011;16812;51.168;6.840;2022-10-16T13:04:27;4.00;;;2.03;;
29954;SDS011;16812;51.168;6.840;2022-10-16T13:06:58;2.10;;;1.00;;
29954;SDS011;16812;51.168;6.840;2022-10-16T13:09:31;2.27;;;1.20;;
29954;SDS011;16812;51.168;6.840;2022-10-16T13:12:11;1.53;;;1.20;;
29954;SDS011;16812;51.168;6.840;2022-10-16T13:14:52;5.17;;;1.50;;
29954;SDS011;16812;51.168;6.840;2022-10-16T13:17:25;1.27;;;1.17;;
29954;SDS011;16812;51.168;6.840;2022-10-16T13:19:57;1.57;;;1.20;;
29954;SDS011;16812;51.168;6.840;2022-10-16T13:22:27;3.70;;;1.40;;
29954;SDS011;16812;51.168;6.840;2022-10-16T13:25:01;2.90;;;1.23;;
29954;SDS011;16812;51.168;6.840;2022-10-16T13:27:33;0.90;;;0.90;;
29954;SDS011;16812;51.168;6.840;2022-10-16T13:30:10;2.23;;;1.30;;
29954;SDS011;16812;51.168;6.840;2022-10-16T13:32:39;2.97;;;1.10;;
29954;SDS011;16812;51.168;6.840;2022-10-16T13:35:17;2.30;;;1.47;;
29954;SDS011;16812;51.168;6.840;2022-10-16T13:37:45;1.77;;;1.60;;
29954;SDS011;16812;51.168;6.840;2022-10-16T13:40:17;1.33;;;1.20;;
29954;SDS011;16812;51.168;6.840;2022-10-16T13:42:44;2.20;;;1.33;;
29954;SDS011;16812;51.168;6.840;2022-10-16T13:45:17;3.97;;;1.20;;
29954;SDS011;16812;51.168;6.840;2022-10-16T13:47:45;7.20;;;1.70;;
29954;SDS011;16812;51.168;6.840;2022-10-16T13:50:14;2.40;;;1.43;;
29954;SDS011;16812;51.168;6.840;2022-10-16T13:52:41;1.43;;;1.33;;
29954;SDS011;16812;51.168;6.840;2022-10-16T13:55:10;2.80;;;0.90;;
29954;SDS011;16812;51.168;6.840;2022-10-16T13:57:37;2.03;;;1.47;;
29954;SDS011;16812;51.168;6.840;2022-10-16T14:00:16;3.07;;;1.23;;
29954;SDS011;16812;51.168;6.840;2022-10-16T14:02:45;4.23;;;1.20;;
29954;SDS011;16812;51.168;6.840;2022-10-16T14:05:17;3.97;;;1.40;;
29954;SDS011;16812;51.168;6.840;2022-10-16T14:07:47;4.77;;;1.00;;
29954;SDS011;16812;51.168;6.840;2022-10-16T14:10:20;3.37;;;1.20;;
29954;SDS011;16812;51.168;6.840;2022-10-16T14:12:54;2.03;;;1.10;;
29954;SDS011;16812;51.168;6.840;2022-10-16T14:15:21;2.23;;;0.90;;
29954;SDS011;16812;51.168;6.840;2022-10-16T14:17:50;3.77;;;1.30;;
29954;SDS011;16812;51.168;6.840;2022-10-16T14:20:18;4.30;;;1.03;;
29954;SDS011;16812;51.168;6.840;2022-10-16T14:22:47;3.40;;;1.33;;
29954;SDS011;16812;51.168;6.840;2022-10-16T14:25:25;2.43;;;1.20;;
29954;SDS011;16812;51.168;6.840;2022-10-16T14:28:00;1.37;;;0.90;;
29954;SDS011;16812;51.168;6.840;2022-10-16T14:30:32;2.20;;;1.00;;
29954;SDS011;16812;51.168;6.840;2022-10-16T14:33:02;1.60;;;1.03;;
29954;SDS011;16812;51.168;6.840;2022-10-16T14:35:30;0.97;;;0.70;;
29954;SDS011;16812;51.168;6.840;2022-10-16T14:37:58;1.90;;;0.93;;
29954;SDS011;16812;51.168;6.840;2022-10-16T14:40:27;2.10;;;1.23;;
29954;SDS011;16812;51.168;6.840;2022-10-16T14:42:54;3.63;;;1.07;;
29954;SDS011;16812;51.168;6.840;2022-10-16T14:45:22;5.03;;;1.10;;
29954;SDS011;16812;51.168;6.840;2022-10-16T14:47:51;1.90;;;1.00;;
29954;SDS011;16812;51.168;6.840;2022-10-16T14:50:20;3.20;;;1.10;;
29954;SDS011;16812;51.168;6.840;2022-10-16T14:52:48;1.47;;;0.80;;
29954;SDS011;16812;51.168;6.840;2022-10-16T14:55:15;2.63;;;1.20;;
29954;SDS011;16812;51.168;6.840;2022-10-16T14:57:43;1.60;;;0.90;;
29954;SDS011;16812;51.168;6.840;2022-10-16T15:00:17;1.87;;;1.20;;
29954;SDS011;16812;51.168;6.840;2022-10-16T15:02:45;4.03;;;0.97;;